sensor_id;sensor_type;location;lat;lon;timestamp;temperature;humidity
14099;DHT22;7126;48.458;7.930;2023-04-01T00:00:49;10.30;99.90
14099;DHT22;7126;48.458;7.930;2023-04-01T00:03:15;10.20;99.90
14099;DHT22;7126;48.458;7.930;2023-04-01T00:05:41;10.30;99.90
14099;DHT22;7126;48.458;7.930;2023-04-01T00:08:06;10.20;99.90
14099;DHT22;7126;48.458;7.930;2023-04-01T00:10:32;10.30;99.90
14099;DHT22;7126;48.458;7.930;2023-04-01T00:12:57;10.30;99.90
14099;DHT22;7126;48.458;7.930;2023-04-01T00:15:23;10.30;99.90
14099;DHT22;7126;48.458;7.930;2023-04-01T00:17:48;10.30;99.90
14099;DHT22;7126;48.458;7.930;2023-04-01T00:20:15;10.20;99.90
14099;DHT22;7126;48.458;7.930;2023-04-01T00:22:41;10.20;99.90
14099;DHT22;7126;48.458;7.930;2023-04-01T00:25:06;10.20;99.90
14099;DHT22;7126;48.458;7.930;2023-04-01T00:27:32;10.20;99.90
14099;DHT22;7126;48.458;7.930;2023-04-01T00:29:58;10.30;99.90
14099;DHT22;7126;48.458;7.930;2023-04-01T00:32:23;10.30;99.90
14099;DHT22;7126;48.458;7.930;2023-04-01T00:34:52;10.20;99.90
14099;DHT22;7126;48.458;7.930;2023-04-01T00:37:19;10.20;99.90
14099;DHT22;7126;48.458;7.930;2023-04-01T00:39:44;10.20;99.90
14099;DHT22;7126;48.458;7.930;2023-04-01T00:42:11;10.20;99.90
14099;DHT22;7126;48.458;7.930;2023-04-01T00:44:38;10.20;99.90
14099;DHT22;7126;48.458;7.930;2023-04-01T00:47:04;10.20;99.90
14099;DHT22;7126;48.458;7.930;2023-04-01T00:49:33;10.10;99.90
14099;DHT22;7126;48.458;7.930;2023-04-01T00:52:03;10.10;99.90
14099;DHT22;7126;48.458;7.930;2023-04-01T00:54:30;10.10;99.90
14099;DHT22;7126;48.458;7.930;2023-04-01T00:57:04;10.10;99.90
14099;DHT22;7126;48.458;7.930;2023-04-01T00:59:39;10.10;99.90
14099;DHT22;7126;48.458;7.930;2023-04-01T01:02:09;10.10;99.90
14099;DHT22;7126;48.458;7.930;2023-04-01T01:04:36;10.00;99.90
14099;DHT22;7126;48.458;7.930;2023-04-01T01:13:10;10.00;99.90
14099;DHT22;7126;48.458;7.930;2023-04-01T01:18:34;10.00;99.90
14099;DHT22;7126;48.458;7.930;2023-04-01T01:32:38;9.90;99.90
14099;DHT22;7126;48.458;7.930;2023-04-01T01:38:26;9.90;99.90
14099;DHT22;7126;48.458;7.930;2023-04-01T01:40:53;9.90;99.90
14099;DHT22;7126;48.458;7.930;2023-04-01T01:43:25;9.90;99.90
14099;DHT22;7126;48.458;7.930;2023-04-01T01:45:55;9.90;99.90
14099;DHT22;7126;48.458;7.930;2023-04-01T01:48:23;9.90;99.90
14099;DHT22;7126;48.458;7.930;2023-04-01T01:50:50;9.90;99.90
14099;DHT22;7126;48.458;7.930;2023-04-01T01:53:16;9.80;99.90
14099;DHT22;7126;48.458;7.930;2023-04-01T01:55:44;9.80;99.90
14099;DHT22;7126;48.458;7.930;2023-04-01T02:00:45;9.80;99.90
14099;DHT22;7126;48.458;7.930;2023-04-01T02:03:13;9.70;99.90
14099;DHT22;7126;48.458;7.930;2023-04-01T02:05:41;9.80;99.90
14099;DHT22;7126;48.458;7.930;2023-04-01T02:08:16;9.80;99.90
14099;DHT22;7126;48.458;7.930;2023-04-01T02:10:55;9.80;99.90
14099;DHT22;7126;48.458;7.930;2023-04-01T02:13:49;9.80;99.90
14099;DHT22;7126;48.458;7.930;2023-04-01T02:16:25;9.80;99.90
14099;DHT22;7126;48.458;7.930;2023-04-01T02:18:53;9.80;99.90
14099;DHT22;7126;48.458;7.930;2023-04-01T02:21:22;9.80;99.90
14099;DHT22;7126;48.458;7.930;2023-04-01T02:23:49;9.90;99.90
14099;DHT22;7126;48.458;7.930;2023-04-01T02:26:17;9.80;99.90
14099;DHT22;7126;48.458;7.930;2023-04-01T02:28:43;9.90;99.90
14099;DHT22;7126;48.458;7.930;2023-04-01T02:31:11;9.80;99.90
14099;DHT22;7126;48.458;7.930;2023-04-01T02:33:39;9.80;99.90
14099;DHT22;7126;48.458;7.930;2023-04-01T02:36:05;9.90;99.90
14099;DHT22;7126;48.458;7.930;2023-04-01T02:38:31;9.90;99.90
14099;DHT22;7126;48.458;7.930;2023-04-01T02:40:59;9.90;99.90
14099;DHT22;7126;48.458;7.930;2023-04-01T02:43:26;9.90;99.90
14099;DHT22;7126;48.458;7.930;2023-04-01T02:45:52;9.90;99.90
14099;DHT22;7126;48.458;7.930;2023-04-01T02:48:18;9.90;99.90
14099;DHT22;7126;48.458;7.930;2023-04-01T02:50:43;9.90;99.90
14099;DHT22;7126;48.458;7.930;2023-04-01T02:53:09;9.90;99.90
14099;DHT22;7126;48.458;7.930;2023-04-01T02:55:35;9.90;99.90
14099;DHT22;7126;48.458;7.930;2023-04-01T02:58:01;9.90;99.90
14099;DHT22;7126;48.458;7.930;2023-04-01T03:00:26;10.00;99.90
14099;DHT22;7126;48.458;7.930;2023-04-01T03:02:52;10.00;99.90
14099;DHT22;7126;48.458;7.930;2023-04-01T03:05:18;10.00;99.90
14099;DHT22;7126;48.458;7.930;2023-04-01T03:07:44;10.10;99.90
14099;DHT22;7126;48.458;7.930;2023-04-01T03:10:10;10.10;99.90
14099;DHT22;7126;48.458;7.930;2023-04-01T03:12:35;10.10;99.90
14099;DHT22;7126;48.458;7.930;2023-04-01T03:15:01;10.10;99.90
14099;DHT22;7126;48.458;7.930;2023-04-01T03:17:27;10.10;99.90
14099;DHT22;7126;48.458;7.930;2023-04-01T03:19:52;10.10;99.90
14099;DHT22;7126;48.458;7.930;2023-04-01T03:22:18;10.10;99.90
14099;DHT22;7126;48.458;7.930;2023-04-01T03:24:47;10.10;99.90
14099;DHT22;7126;48.458;7.930;2023-04-01T03:27:12;10.20;99.90
14099;DHT22;7126;48.458;7.930;2023-04-01T03:29:38;10.10;99.90
14099;DHT22;7126;48.458;7.930;2023-04-01T03:32:04;10.20;99.90
14099;DHT22;7126;48.458;7.930;2023-04-01T03:34:30;10.20;99.90
14099;DHT22;7126;48.458;7.930;2023-04-01T03:36:56;10.20;99.90
14099;DHT22;7126;48.458;7.930;2023-04-01T03:39:21;10.20;99.90
14099;DHT22;7126;48.458;7.930;2023-04-01T03:41:47;10.20;99.90
14099;DHT22;7126;48.458;7.930;2023-04-01T03:44:13;10.20;99.90
14099;DHT22;7126;48.458;7.930;2023-04-01T03:46:39;10.20;99.90
14099;DHT22;7126;48.458;7.930;2023-04-01T03:49:09;10.10;99.90
14099;DHT22;7126;48.458;7.930;2023-04-01T03:51:41;10.10;99.90
14099;DHT22;7126;48.458;7.930;2023-04-01T03:54:07;10.10;99.90
14099;DHT22;7126;48.458;7.930;2023-04-01T03:56:33;10.10;99.90
14099;DHT22;7126;48.458;7.930;2023-04-01T03:59:03;10.10;99.90
14099;DHT22;7126;48.458;7.930;2023-04-01T04:01:28;10.10;99.90
14099;DHT22;7126;48.458;7.930;2023-04-01T04:03:55;10.00;99.90
14099;DHT22;7126;48.458;7.930;2023-04-01T04:06:22;10.00;99.90
14099;DHT22;7126;48.458;7.930;2023-04-01T04:08:49;10.00;99.90
14099;DHT22;7126;48.458;7.930;2023-04-01T04:11:15;10.00;99.90
14099;DHT22;7126;48.458;7.930;2023-04-01T04:13:41;10.00;99.90
14099;DHT22;7126;48.458;7.930;2023-04-01T04:16:08;10.00;99.90
14099;DHT22;7126;48.458;7.930;2023-04-01T04:18:35;10.00;99.90
14099;DHT22;7126;48.458;7.930;2023-04-01T04:21:01;10.00;99.90
14099;DHT22;7126;48.458;7.930;2023-04-01T04:23:27;10.00;99.90
14099;DHT22;7126;48.458;7.930;2023-04-01T04:26:03;9.90;99.90
14099;DHT22;7126;48.458;7.930;2023-04-01T04:28:30;9.90;99.90
14099;DHT22;7126;48.458;7.930;2023-04-01T04:30:55;10.00;99.90
14099;DHT22;7126;48.458;7.930;2023-04-01T04:33:22;9.90;99.90
14099;DHT22;7126;48.458;7.930;2023-04-01T04:35:48;10.00;99.90
14099;DHT22;7126;48.458;7.930;2023-04-01T04:38:14;9.90;99.90
14099;DHT22;7126;48.458;7.930;2023-04-01T04:40:40;10.00;99.90
14099;DHT22;7126;48.458;7.930;2023-04-01T04:43:07;10.00;99.90
14099;DHT22;7126;48.458;7.930;2023-04-01T04:45:32;10.00;99.90
14099;DHT22;7126;48.458;7.930;2023-04-01T04:47:58;10.00;99.90
14099;DHT22;7126;48.458;7.930;2023-04-01T04:50:24;10.00;99.90
14099;DHT22;7126;48.458;7.930;2023-04-01T04:52:50;10.00;99.90
14099;DHT22;7126;48.458;7.930;2023-04-01T04:55:16;9.90;99.90
14099;DHT22;7126;48.458;7.930;2023-04-01T04:57:41;10.00;99.90
14099;DHT22;7126;48.458;7.930;2023-04-01T05:00:08;9.90;99.90
14099;DHT22;7126;48.458;7.930;2023-04-01T05:02:34;9.90;99.90
14099;DHT22;7126;48.458;7.930;2023-04-01T05:04:59;9.90;99.90
14099;DHT22;7126;48.458;7.930;2023-04-01T05:07:25;9.90;99.90
14099;DHT22;7126;48.458;7.930;2023-04-01T05:09:51;9.80;99.90
14099;DHT22;7126;48.458;7.930;2023-04-01T05:12:16;9.80;99.90
14099;DHT22;7126;48.458;7.930;2023-04-01T05:14:42;9.80;99.90
14099;DHT22;7126;48.458;7.930;2023-04-01T05:17:09;9.80;99.90
14099;DHT22;7126;48.458;7.930;2023-04-01T05:19:35;9.80;99.90
14099;DHT22;7126;48.458;7.930;2023-04-01T05:22:01;9.80;99.90
14099;DHT22;7126;48.458;7.930;2023-04-01T05:24:27;9.80;99.90
14099;DHT22;7126;48.458;7.930;2023-04-01T05:26:52;9.80;99.90
14099;DHT22;7126;48.458;7.930;2023-04-01T05:29:18;9.90;99.90
14099;DHT22;7126;48.458;7.930;2023-04-01T05:31:44;9.90;99.90
14099;DHT22;7126;48.458;7.930;2023-04-01T05:34:09;9.90;99.90
14099;DHT22;7126;48.458;7.930;2023-04-01T05:36:36;9.90;99.90
14099;DHT22;7126;48.458;7.930;2023-04-01T05:39:02;9.80;99.90
14099;DHT22;7126;48.458;7.930;2023-04-01T05:41:28;9.90;99.90
14099;DHT22;7126;48.458;7.930;2023-04-01T05:43:54;9.80;99.90
14099;DHT22;7126;48.458;7.930;2023-04-01T05:46:20;9.80;99.90
14099;DHT22;7126;48.458;7.930;2023-04-01T05:48:45;9.80;99.90
14099;DHT22;7126;48.458;7.930;2023-04-01T05:51:13;9.80;99.90
14099;DHT22;7126;48.458;7.930;2023-04-01T05:53:39;9.80;99.90
14099;DHT22;7126;48.458;7.930;2023-04-01T05:56:05;9.90;99.90
14099;DHT22;7126;48.458;7.930;2023-04-01T05:58:31;9.90;99.90
14099;DHT22;7126;48.458;7.930;2023-04-01T06:01:07;9.90;99.90
14099;DHT22;7126;48.458;7.930;2023-04-01T06:03:33;9.90;99.90
14099;DHT22;7126;48.458;7.930;2023-04-01T06:05:59;9.90;99.90
14099;DHT22;7126;48.458;7.930;2023-04-01T06:08:27;10.00;99.90
14099;DHT22;7126;48.458;7.930;2023-04-01T06:13:58;10.10;99.90
14099;DHT22;7126;48.458;7.930;2023-04-01T06:17:12;10.10;99.90
14099;DHT22;7126;48.458;7.930;2023-04-01T06:33:51;10.20;99.90
14099;DHT22;7126;48.458;7.930;2023-04-01T06:42:19;10.20;99.90
14099;DHT22;7126;48.458;7.930;2023-04-01T06:50:38;10.30;99.90
14099;DHT22;7126;48.458;7.930;2023-04-01T06:55:47;10.20;99.90
14099;DHT22;7126;48.458;7.930;2023-04-01T06:58:23;10.30;99.90
14099;DHT22;7126;48.458;7.930;2023-04-01T07:00:56;10.20;99.90
14099;DHT22;7126;48.458;7.930;2023-04-01T07:03:40;10.20;99.90
14099;DHT22;7126;48.458;7.930;2023-04-01T07:06:14;10.20;99.90
14099;DHT22;7126;48.458;7.930;2023-04-01T07:08:43;10.20;99.90
14099;DHT22;7126;48.458;7.930;2023-04-01T07:11:15;10.30;99.90
14099;DHT22;7126;48.458;7.930;2023-04-01T07:13:51;10.30;99.90
14099;DHT22;7126;48.458;7.930;2023-04-01T07:16:25;10.20;99.90
14099;DHT22;7126;48.458;7.930;2023-04-01T07:21:56;10.20;99.90
14099;DHT22;7126;48.458;7.930;2023-04-01T07:24:44;10.20;99.90
14099;DHT22;7126;48.458;7.930;2023-04-01T07:27:11;10.20;99.90
14099;DHT22;7126;48.458;7.930;2023-04-01T07:29:37;10.30;99.90
14099;DHT22;7126;48.458;7.930;2023-04-01T07:32:24;10.30;99.90
14099;DHT22;7126;48.458;7.930;2023-04-01T07:43:30;10.50;99.90
14099;DHT22;7126;48.458;7.930;2023-04-01T07:51:31;10.50;99.90
14099;DHT22;7126;48.458;7.930;2023-04-01T07:54:22;10.60;99.90
14099;DHT22;7126;48.458;7.930;2023-04-01T07:56:57;10.50;99.90
14099;DHT22;7126;48.458;7.930;2023-04-01T07:59:37;10.60;99.90
14099;DHT22;7126;48.458;7.930;2023-04-01T08:10:26;10.60;99.90
14099;DHT22;7126;48.458;7.930;2023-04-01T08:16:06;10.40;99.90
14099;DHT22;7126;48.458;7.930;2023-04-01T08:18:38;10.40;99.90
14099;DHT22;7126;48.458;7.930;2023-04-01T08:21:25;10.30;99.90
14099;DHT22;7126;48.458;7.930;2023-04-01T08:23:56;10.30;99.90
14099;DHT22;7126;48.458;7.930;2023-04-01T08:28:59;10.30;99.90
14099;DHT22;7126;48.458;7.930;2023-04-01T08:34:37;10.30;99.90
14099;DHT22;7126;48.458;7.930;2023-04-01T08:37:25;10.30;99.90
14099;DHT22;7126;48.458;7.930;2023-04-01T08:53:39;10.20;99.90
14099;DHT22;7126;48.458;7.930;2023-04-01T08:56:23;10.20;99.90
14099;DHT22;7126;48.458;7.930;2023-04-01T08:59:31;10.20;99.90
14099;DHT22;7126;48.458;7.930;2023-04-01T09:08:25;10.20;99.90
14099;DHT22;7126;48.458;7.930;2023-04-01T09:11:05;10.10;99.90
14099;DHT22;7126;48.458;7.930;2023-04-01T09:13:54;10.10;99.90
14099;DHT22;7126;48.458;7.930;2023-04-01T09:16:48;10.10;99.90
14099;DHT22;7126;48.458;7.930;2023-04-01T09:27:26;10.10;99.90
14099;DHT22;7126;48.458;7.930;2023-04-01T09:38:28;10.20;99.90
14099;DHT22;7126;48.458;7.930;2023-04-01T09:40:58;10.10;99.90
14099;DHT22;7126;48.458;7.930;2023-04-01T09:54:46;10.20;99.90
14099;DHT22;7126;48.458;7.930;2023-04-01T09:57:51;10.20;99.90
14099;DHT22;7126;48.458;7.930;2023-04-01T10:06:19;10.30;99.90
14099;DHT22;7126;48.458;7.930;2023-04-01T10:09:10;10.20;99.90
14099;DHT22;7126;48.458;7.930;2023-04-01T10:14:35;10.30;99.90
14099;DHT22;7126;48.458;7.930;2023-04-01T10:22:42;10.30;99.90
14099;DHT22;7126;48.458;7.930;2023-04-01T10:33:45;10.40;99.90
14099;DHT22;7126;48.458;7.930;2023-04-01T10:36:24;10.40;99.90
14099;DHT22;7126;48.458;7.930;2023-04-01T10:39:20;10.40;99.90
14099;DHT22;7126;48.458;7.930;2023-04-01T10:47:01;10.30;99.90
14099;DHT22;7126;48.458;7.930;2023-04-01T11:01:20;10.30;99.90
14099;DHT22;7126;48.458;7.930;2023-04-01T11:04:29;10.30;99.90
14099;DHT22;7126;48.458;7.930;2023-04-01T11:10:30;10.40;99.90
14099;DHT22;7126;48.458;7.930;2023-04-01T11:13:27;10.40;99.90
14099;DHT22;7126;48.458;7.930;2023-04-01T11:19:02;10.40;99.90
14099;DHT22;7126;48.458;7.930;2023-04-01T11:32:16;10.70;99.90
14099;DHT22;7126;48.458;7.930;2023-04-01T11:40:33;10.70;99.90
14099;DHT22;7126;48.458;7.930;2023-04-01T11:46:33;10.60;99.90
14099;DHT22;7126;48.458;7.930;2023-04-01T12:05:54;10.90;99.90
14099;DHT22;7126;48.458;7.930;2023-04-01T12:08:33;10.80;99.90
14099;DHT22;7126;48.458;7.930;2023-04-01T12:11:29;10.90;99.90
14099;DHT22;7126;48.458;7.930;2023-04-01T12:14:19;10.90;99.90
14099;DHT22;7126;48.458;7.930;2023-04-01T12:16:50;10.90;99.90
14099;DHT22;7126;48.458;7.930;2023-04-01T12:24:45;10.80;99.90
14099;DHT22;7126;48.458;7.930;2023-04-01T12:27:38;10.80;99.90
14099;DHT22;7126;48.458;7.930;2023-04-01T12:30:24;10.80;99.90
14099;DHT22;7126;48.458;7.930;2023-04-01T12:36:16;10.80;99.90
14099;DHT22;7126;48.458;7.930;2023-04-01T12:39:11;10.80;99.90
14099;DHT22;7126;48.458;7.930;2023-04-01T12:47:43;10.80;99.90
14099;DHT22;7126;48.458;7.930;2023-04-01T12:50:28;10.80;99.90
14099;DHT22;7126;48.458;7.930;2023-04-01T12:53:43;10.80;99.90
14099;DHT22;7126;48.458;7.930;2023-04-01T12:56:16;10.80;99.90
14099;DHT22;7126;48.458;7.930;2023-04-01T13:07:40;10.90;99.90
14099;DHT22;7126;48.458;7.930;2023-04-01T13:12:56;10.80;99.90
14099;DHT22;7126;48.458;7.930;2023-04-01T13:18:35;10.80;99.90
14099;DHT22;7126;48.458;7.930;2023-04-01T13:21:15;10.80;99.90
14099;DHT22;7126;48.458;7.930;2023-04-01T13:26:42;10.90;99.90
14099;DHT22;7126;48.458;7.930;2023-04-01T13:29:20;10.90;99.90
14099;DHT22;7126;48.458;7.930;2023-04-01T13:35:12;10.90;99.90
14099;DHT22;7126;48.458;7.930;2023-04-01T13:43:50;11.10;99.90
14099;DHT22;7126;48.458;7.930;2023-04-01T14:00:07;11.40;99.90
14099;DHT22;7126;48.458;7.930;2023-04-01T14:02:51;11.40;99.90
14099;DHT22;7126;48.458;7.930;2023-04-01T14:11:13;11.30;99.90
14099;DHT22;7126;48.458;7.930;2023-04-01T14:24:52;11.30;99.90
14099;DHT22;7126;48.458;7.930;2023-04-01T14:30:25;11.30;99.90
14099;DHT22;7126;48.458;7.930;2023-04-01T14:43:40;11.40;99.90
14099;DHT22;7126;48.458;7.930;2023-04-01T14:51:32;11.50;99.90
14099;DHT22;7126;48.458;7.930;2023-04-01T14:56:44;11.50;99.90
14099;DHT22;7126;48.458;7.930;2023-04-01T14:59:26;11.50;99.90
14099;DHT22;7126;48.458;7.930;2023-04-01T15:02:14;11.50;99.90
14099;DHT22;7126;48.458;7.930;2023-04-01T15:05:02;11.50;99.90
14099;DHT22;7126;48.458;7.930;2023-04-01T15:08:00;11.60;99.90
14099;DHT22;7126;48.458;7.930;2023-04-01T15:10:58;11.60;99.90
14099;DHT22;7126;48.458;7.930;2023-04-01T15:13:54;11.60;99.90
14099;DHT22;7126;48.458;7.930;2023-04-01T15:16:34;11.70;99.90
14099;DHT22;7126;48.458;7.930;2023-04-01T15:30:18;11.80;99.90
14099;DHT22;7126;48.458;7.930;2023-04-01T15:32:52;11.80;99.90
14099;DHT22;7126;48.458;7.930;2023-04-01T15:38:17;11.90;99.90
14099;DHT22;7126;48.458;7.930;2023-04-01T15:46:13;11.90;99.90
14099;DHT22;7126;48.458;7.930;2023-04-01T15:59:53;12.00;99.90
14099;DHT22;7126;48.458;7.930;2023-04-01T16:21:40;11.90;99.90
14099;DHT22;7126;48.458;7.930;2023-04-01T16:24:15;11.90;99.90
14099;DHT22;7126;48.458;7.930;2023-04-01T16:26:59;11.90;99.90
14099;DHT22;7126;48.458;7.930;2023-04-01T16:30:32;11.90;99.90
14099;DHT22;7126;48.458;7.930;2023-04-01T16:33:04;11.90;99.90
14099;DHT22;7126;48.458;7.930;2023-04-01T16:35:53;11.90;99.90
14099;DHT22;7126;48.458;7.930;2023-04-01T16:38:55;11.90;99.90
14099;DHT22;7126;48.458;7.930;2023-04-01T16:41:29;11.90;99.90
14099;DHT22;7126;48.458;7.930;2023-04-01T16:44:16;11.90;99.90
14099;DHT22;7126;48.458;7.930;2023-04-01T16:46:50;11.80;99.90
14099;DHT22;7126;48.458;7.930;2023-04-01T16:49:44;11.80;99.90
14099;DHT22;7126;48.458;7.930;2023-04-01T16:54:51;11.80;99.90
14099;DHT22;7126;48.458;7.930;2023-04-01T16:57:35;11.80;99.90
14099;DHT22;7126;48.458;7.930;2023-04-01T17:00:16;11.70;99.90
14099;DHT22;7126;48.458;7.930;2023-04-01T17:08:30;11.50;99.90
14099;DHT22;7126;48.458;7.930;2023-04-01T17:11:15;11.50;99.90
14099;DHT22;7126;48.458;7.930;2023-04-01T17:24:20;11.50;99.90
14099;DHT22;7126;48.458;7.930;2023-04-01T17:26:53;11.50;99.90
14099;DHT22;7126;48.458;7.930;2023-04-01T17:29:37;11.50;99.90
14099;DHT22;7126;48.458;7.930;2023-04-01T17:35:02;11.40;99.90
14099;DHT22;7126;48.458;7.930;2023-04-01T17:40:56;11.30;99.90
14099;DHT22;7126;48.458;7.930;2023-04-01T17:46:08;11.20;99.90
14099;DHT22;7126;48.458;7.930;2023-04-01T17:48:53;11.20;99.90
14099;DHT22;7126;48.458;7.930;2023-04-01T17:51:36;11.30;99.90
14099;DHT22;7126;48.458;7.930;2023-04-01T18:00:19;11.20;99.90
14099;DHT22;7126;48.458;7.930;2023-04-01T18:05:52;11.10;99.90
14099;DHT22;7126;48.458;7.930;2023-04-01T18:11:37;11.10;99.90
14099;DHT22;7126;48.458;7.930;2023-04-01T18:22:58;11.20;99.90
14099;DHT22;7126;48.458;7.930;2023-04-01T18:25:32;11.20;99.90
14099;DHT22;7126;48.458;7.930;2023-04-01T18:30:32;11.10;99.90
14099;DHT22;7126;48.458;7.930;2023-04-01T18:35:54;11.00;99.90
14099;DHT22;7126;48.458;7.930;2023-04-01T18:38:35;10.90;99.90
14099;DHT22;7126;48.458;7.930;2023-04-01T18:41:22;10.90;99.90
14099;DHT22;7126;48.458;7.930;2023-04-01T18:47:30;10.80;99.90
14099;DHT22;7126;48.458;7.930;2023-04-01T18:50:18;10.70;99.90
14099;DHT22;7126;48.458;7.930;2023-04-01T18:52:47;10.70;99.90
14099;DHT22;7126;48.458;7.930;2023-04-01T19:01:23;10.50;99.90
14099;DHT22;7126;48.458;7.930;2023-04-01T19:09:25;10.40;99.90
14099;DHT22;7126;48.458;7.930;2023-04-01T19:17:45;10.40;99.90
14099;DHT22;7126;48.458;7.930;2023-04-01T19:22:56;10.50;99.90
14099;DHT22;7126;48.458;7.930;2023-04-01T19:31:13;10.50;99.90
14099;DHT22;7126;48.458;7.930;2023-04-01T19:36:48;10.60;99.90
14099;DHT22;7126;48.458;7.930;2023-04-01T19:39:35;10.60;99.90
14099;DHT22;7126;48.458;7.930;2023-04-01T19:46:58;10.40;99.90
14099;DHT22;7126;48.458;7.930;2023-04-01T19:52:39;10.30;99.90
14099;DHT22;7126;48.458;7.930;2023-04-01T20:00:44;10.30;99.90
14099;DHT22;7126;48.458;7.930;2023-04-01T20:03:36;10.10;99.90
14099;DHT22;7126;48.458;7.930;2023-04-01T20:14:46;9.90;99.90
14099;DHT22;7126;48.458;7.930;2023-04-01T20:20:20;9.80;99.90
14099;DHT22;7126;48.458;7.930;2023-04-01T20:25:52;9.90;99.90
14099;DHT22;7126;48.458;7.930;2023-04-01T20:33:40;9.70;99.90
14099;DHT22;7126;48.458;7.930;2023-04-01T20:39:14;9.60;99.90
14099;DHT22;7126;48.458;7.930;2023-04-01T20:45:08;9.70;99.90
14099;DHT22;7126;48.458;7.930;2023-04-01T20:50:35;9.70;99.90
14099;DHT22;7126;48.458;7.930;2023-04-01T21:09:06;9.70;99.90
14099;DHT22;7126;48.458;7.930;2023-04-01T21:12:12;9.70;99.90
14099;DHT22;7126;48.458;7.930;2023-04-01T21:15:50;9.80;99.90
14099;DHT22;7126;48.458;7.930;2023-04-01T21:18:06;9.90;99.90
14099;DHT22;7126;48.458;7.930;2023-04-01T21:21:00;9.90;99.90
14099;DHT22;7126;48.458;7.930;2023-04-01T21:24:28;9.90;99.90
14099;DHT22;7126;48.458;7.930;2023-04-01T21:30:18;9.90;99.90
14099;DHT22;7126;48.458;7.930;2023-04-01T21:39:31;9.80;99.90
14099;DHT22;7126;48.458;7.930;2023-04-01T21:45:33;9.90;99.90
14099;DHT22;7126;48.458;7.930;2023-04-01T21:59:22;9.80;99.90
14099;DHT22;7126;48.458;7.930;2023-04-01T22:04:36;9.70;99.90
14099;DHT22;7126;48.458;7.930;2023-04-01T22:07:21;9.70;99.90
14099;DHT22;7126;48.458;7.930;2023-04-01T22:12:35;9.70;99.90
14099;DHT22;7126;48.458;7.930;2023-04-01T22:15:15;9.70;99.90
14099;DHT22;7126;48.458;7.930;2023-04-01T22:18:13;9.70;99.90
14099;DHT22;7126;48.458;7.930;2023-04-01T22:20:53;9.60;99.90
14099;DHT22;7126;48.458;7.930;2023-04-01T22:23:32;9.60;99.90
14099;DHT22;7126;48.458;7.930;2023-04-01T22:26:24;9.60;99.90
14099;DHT22;7126;48.458;7.930;2023-04-01T22:31:55;9.50;99.90
14099;DHT22;7126;48.458;7.930;2023-04-01T22:50:32;9.40;99.90
14099;DHT22;7126;48.458;7.930;2023-04-01T22:55:40;9.40;99.90
14099;DHT22;7126;48.458;7.930;2023-04-01T22:58:18;9.40;99.90
14099;DHT22;7126;48.458;7.930;2023-04-01T23:00:54;9.40;99.90
14099;DHT22;7126;48.458;7.930;2023-04-01T23:03:27;9.40;99.90
14099;DHT22;7126;48.458;7.930;2023-04-01T23:05:55;9.40;99.90
14099;DHT22;7126;48.458;7.930;2023-04-01T23:17:09;9.40;99.90
14099;DHT22;7126;48.458;7.930;2023-04-01T23:22:41;9.30;99.90
14099;DHT22;7126;48.458;7.930;2023-04-01T23:36:13;9.30;99.90
14099;DHT22;7126;48.458;7.930;2023-04-01T23:38:42;9.40;99.90
14099;DHT22;7126;48.458;7.930;2023-04-01T23:41:16;9.40;99.90
14099;DHT22;7126;48.458;7.930;2023-04-01T23:43:44;9.40;99.90
14099;DHT22;7126;48.458;7.930;2023-04-01T23:46:11;9.50;99.90
14099;DHT22;7126;48.458;7.930;2023-04-01T23:48:43;9.50;99.90
14099;DHT22;7126;48.458;7.930;2023-04-01T23:51:25;9.40;99.90
14099;DHT22;7126;48.458;7.930;2023-04-01T23:54:17;9.40;99.90
14099;DHT22;7126;48.458;7.930;2023-04-01T23:56:50;9.40;99.90
14099;DHT22;7126;48.458;7.930;2023-04-01T23:59:19;9.40;99.90
